createdAt,value
2018-11-13T00:00:54.390Z,90.00
2018-11-13T00:01:54.380Z,89.94
2018-11-13T00:02:54.369Z,90.00
2018-11-13T00:03:54.371Z,90.04
2018-11-13T00:04:54.349Z,89.94
2018-11-13T00:05:54.374Z,89.79
2018-11-13T00:06:54.337Z,89.69
2018-11-13T00:07:54.314Z,89.59
2018-11-13T00:08:54.474Z,89.94
2018-11-13T00:09:54.294Z,89.69
2018-11-13T00:10:54.280Z,89.59
2018-11-13T00:11:54.310Z,89.49
2018-11-13T00:12:54.253Z,89.53
2018-11-13T00:13:54.276Z,90.04
2018-11-13T00:14:54.245Z,89.49
2018-11-13T00:15:54.237Z,89.94
2018-11-13T00:16:54.209Z,90.31
2018-11-13T00:17:54.243Z,90.20
2018-11-13T00:18:54.235Z,90.35
2018-11-13T00:19:54.179Z,90.45
2018-11-13T00:20:54.166Z,90.55
2018-11-13T00:21:54.164Z,90.41
2018-11-13T00:22:54.143Z,90.20
2018-11-13T00:23:54.189Z,90.92
2018-11-13T00:24:54.157Z,91.02
2018-11-13T00:25:54.120Z,90.81
2018-11-13T00:26:54.164Z,90.86
2018-11-13T00:27:54.106Z,90.61
2018-11-13T00:28:54.090Z,90.96
2018-11-13T00:29:54.073Z,91.16
2018-11-13T00:30:54.052Z,90.92
2018-11-13T00:31:54.043Z,90.10
2018-11-13T00:32:54.075Z,90.10
2018-11-13T00:33:54.022Z,90.31
2018-11-13T00:34:54.033Z,89.90
2018-11-13T00:35:54.041Z,89.79
2018-11-13T00:36:53.996Z,89.90
2018-11-13T00:37:54.029Z,89.90
2018-11-13T00:38:54.078Z,89.79
2018-11-13T00:39:53.979Z,89.59
2018-11-13T00:40:53.982Z,89.59
2018-11-13T00:41:53.931Z,88.88
2018-11-13T00:42:53.923Z,89.08
2018-11-13T00:43:53.942Z,89.08
2018-11-13T00:44:53.900Z,88.47
2018-11-13T00:45:54.510Z,88.57
2018-11-13T00:46:53.894Z,88.17
2018-11-13T00:47:53.862Z,88.17
2018-11-13T00:48:53.853Z,88.37
2018-11-13T00:49:53.890Z,88.78
2018-11-13T00:50:53.841Z,88.26
2018-11-13T00:51:53.849Z,88.78
2018-11-13T00:52:53.847Z,89.08
2018-11-13T00:53:53.799Z,88.98
2018-11-13T00:54:53.799Z,88.82
2018-11-13T00:55:53.774Z,89.84
2018-11-13T00:56:53.773Z,89.84
2018-11-13T00:57:53.761Z,89.63
2018-11-13T00:58:53.783Z,89.32
2018-11-13T00:59:53.727Z,89.73
2018-11-13T01:00:54.182Z,89.59
2018-11-13T01:01:53.795Z,89.84
2018-11-13T01:02:53.694Z,89.73
2018-11-13T01:03:53.688Z,89.53
2018-11-13T01:04:53.727Z,89.59
2018-11-13T01:05:53.992Z,89.84
2018-11-13T01:06:53.690Z,89.23
2018-11-13T01:07:53.637Z,89.63
2018-11-13T01:08:53.916Z,89.73
2018-11-13T01:09:53.616Z,90.14
2018-11-13T01:10:53.616Z,89.94
2018-11-13T01:11:53.671Z,89.53
2018-11-13T01:12:53.640Z,89.73
2018-11-13T01:13:53.571Z,89.67
2018-11-13T01:14:53.574Z,90.25
2018-11-13T01:15:53.549Z,90.25
2018-11-13T01:16:53.544Z,90.35
2018-11-13T01:17:53.525Z,90.45
2018-11-13T01:18:53.560Z,90.45
2018-11-13T01:19:53.503Z,90.08
2018-11-13T01:20:53.510Z,90.14
2018-11-13T01:21:53.483Z,90.35
2018-11-13T01:22:53.467Z,90.45
2018-11-13T01:23:53.507Z,90.25
2018-11-13T01:24:53.538Z,90.04
2018-11-13T01:25:53.480Z,90.35
2018-11-13T01:26:53.456Z,90.86
2018-11-13T01:27:53.424Z,90.45
2018-11-13T01:28:53.411Z,90.75
2018-11-13T01:29:53.404Z,90.96
2018-11-13T01:30:53.424Z,90.75
2018-11-13T01:31:53.434Z,90.55
2018-11-13T01:32:53.371Z,90.66
2018-11-13T01:33:53.345Z,90.45
2018-11-13T01:34:53.415Z,90.86
2018-11-13T01:35:53.331Z,90.55
2018-11-13T01:36:53.372Z,90.19
2018-11-13T01:37:53.299Z,90.45
2018-11-13T01:38:53.491Z,90.35
2018-11-13T01:39:53.291Z,89.84
2018-11-13T01:40:53.284Z,89.73
2018-11-13T01:41:53.302Z,89.63
2018-11-13T01:42:53.285Z,89.73
2018-11-13T01:43:53.251Z,89.43
2018-11-13T01:44:53.227Z,89.53
2018-11-13T01:45:53.241Z,89.63
2018-11-13T01:46:53.205Z,89.12
2018-11-13T01:47:53.207Z,88.92
2018-11-13T01:48:53.383Z,89.23
2018-11-13T01:49:53.174Z,89.02
2018-11-13T01:50:53.162Z,89.02
2018-11-13T01:51:53.159Z,89.32
2018-11-13T01:52:53.174Z,89.12
2018-11-13T01:53:53.124Z,89.12
2018-11-13T01:54:53.117Z,88.92
2018-11-13T01:55:53.101Z,88.61
2018-11-13T01:56:53.090Z,89.02
2018-11-13T01:57:53.082Z,88.41
2018-11-13T01:58:53.120Z,87.90
2018-11-13T01:59:53.074Z,87.79
2018-11-13T02:00:53.044Z,87.65
2018-11-13T02:01:53.084Z,87.85
2018-11-13T02:02:53.019Z,87.96
2018-11-13T02:03:53.051Z,88.06
2018-11-13T02:04:53.035Z,87.65
2018-11-13T02:05:53.094Z,87.85
2018-11-13T02:06:52.976Z,87.85
2018-11-13T02:07:52.971Z,87.55
2018-11-13T02:08:53.068Z,87.70
2018-11-13T02:09:52.984Z,88.20
2018-11-13T02:10:52.935Z,88.82
2018-11-13T02:11:52.986Z,88.61
2018-11-13T02:12:52.922Z,88.61
2018-11-13T02:13:52.935Z,88.51
2018-11-13T02:14:52.897Z,88.82
2018-11-13T02:15:52.894Z,88.10
2018-11-13T02:16:52.905Z,88.24
2018-11-13T02:17:52.901Z,88.00
2018-11-13T02:18:52.854Z,87.38
2018-11-13T02:19:52.835Z,87.70
2018-11-13T02:20:52.821Z,87.49
2018-11-13T02:21:52.846Z,87.49
2018-11-13T02:22:52.836Z,88.10
2018-11-13T02:23:52.783Z,88.31
2018-11-13T02:24:52.774Z,87.70
2018-11-13T02:25:52.828Z,87.49
2018-11-13T02:26:52.774Z,87.70
2018-11-13T02:27:52.758Z,87.59
2018-11-13T02:28:52.732Z,86.77
2018-11-13T02:29:52.767Z,86.77
2018-11-13T02:30:52.717Z,86.82
2018-11-13T02:31:52.738Z,86.77
2018-11-13T02:32:52.695Z,86.36
2018-11-13T02:33:52.721Z,85.65
2018-11-13T02:34:52.662Z,85.86
2018-11-13T02:35:52.663Z,86.16
2018-11-13T02:36:52.653Z,86.06
2018-11-13T02:37:52.645Z,85.14
2018-11-13T02:38:52.632Z,84.74
2018-11-13T02:39:52.658Z,84.94
2018-11-13T02:40:52.617Z,85.24
2018-11-13T02:41:52.616Z,84.53
2018-11-13T02:42:52.585Z,84.36
2018-11-13T02:43:52.575Z,83.92
2018-11-13T02:44:52.609Z,84.12
2018-11-13T02:45:52.626Z,84.01
2018-11-13T02:46:52.546Z,83.61
2018-11-13T02:47:52.527Z,84.94
2018-11-13T02:48:52.511Z,84.53
2018-11-13T02:49:52.500Z,84.33
2018-11-13T02:50:52.526Z,84.42
2018-11-13T02:51:52.492Z,84.01
2018-11-13T02:52:52.458Z,84.88
2018-11-13T02:53:52.452Z,84.22
2018-11-13T02:54:52.461Z,84.01
2018-11-13T02:55:52.476Z,84.22
2018-11-13T02:56:52.424Z,84.06
2018-11-13T02:57:52.409Z,84.22
2018-11-13T02:58:52.415Z,84.22
2018-11-13T02:59:52.420Z,84.01
2018-11-13T03:00:52.402Z,84.36
2018-11-13T03:01:52.402Z,84.33
2018-11-13T03:02:52.358Z,84.88
2018-11-13T03:03:52.366Z,84.47
2018-11-13T03:04:52.358Z,84.77
2018-11-13T03:05:52.360Z,84.88
2018-11-13T03:06:52.308Z,84.74
2018-11-13T03:07:52.337Z,84.88
2018-11-13T03:08:52.524Z,84.36
2018-11-13T03:09:52.302Z,84.57
2018-11-13T03:10:52.265Z,84.36
2018-11-13T03:11:52.295Z,84.47
2018-11-13T03:12:52.246Z,84.57
2018-11-13T03:13:52.325Z,84.57
2018-11-13T03:14:52.256Z,84.88
2018-11-13T03:15:52.204Z,84.47
2018-11-13T03:16:52.190Z,84.06
2018-11-13T03:17:52.197Z,84.06
2018-11-13T03:18:52.173Z,84.26
2018-11-13T03:19:52.169Z,83.81
2018-11-13T03:20:52.202Z,83.54
2018-11-13T03:21:52.134Z,84.36
2018-11-13T03:22:52.129Z,84.16
2018-11-13T03:23:52.127Z,83.54
2018-11-13T03:24:52.116Z,83.65
2018-11-13T03:25:52.145Z,83.65
2018-11-13T03:26:52.077Z,83.85
2018-11-13T03:27:52.077Z,83.04
2018-11-13T03:28:52.068Z,83.34
2018-11-13T03:29:52.058Z,83.14
2018-11-13T03:30:52.084Z,83.20
2018-11-13T03:31:52.074Z,83.24
2018-11-13T03:32:52.015Z,82.49
2018-11-13T03:33:52.004Z,83.30
2018-11-13T03:34:52.016Z,82.49
2018-11-13T03:35:52.080Z,82.49
2018-11-13T03:36:51.976Z,82.59
2018-11-13T03:37:51.955Z,82.79
2018-11-13T03:38:52.074Z,82.49
2018-11-13T03:39:51.987Z,82.49
2018-11-13T03:40:51.924Z,82.39
2018-11-13T03:41:51.941Z,82.53
2018-11-13T03:42:51.955Z,82.59
2018-11-13T03:43:51.922Z,83.10
2018-11-13T03:44:51.907Z,83.95
2018-11-13T03:45:51.865Z,83.40
2018-11-13T03:46:51.860Z,83.71
2018-11-13T03:47:51.854Z,84.01
2018-11-13T03:48:51.894Z,84.42
2018-11-13T03:49:51.862Z,84.33
2018-11-13T03:50:51.837Z,84.01
2018-11-13T03:51:51.810Z,83.81
2018-11-13T03:52:51.787Z,83.92
2018-11-13T03:53:51.785Z,84.22
2018-11-13T03:54:51.809Z,84.33
2018-11-13T03:55:51.757Z,83.81
2018-11-13T03:56:51.743Z,84.22
2018-11-13T03:57:51.731Z,84.33
2018-11-13T03:58:51.729Z,83.81
2018-11-13T03:59:51.715Z,84.63
2018-11-13T04:00:51.741Z,84.22
2018-11-13T04:01:51.700Z,84.22
2018-11-13T04:02:51.690Z,84.16
2018-11-13T04:03:51.668Z,84.22
2018-11-13T04:04:51.729Z,83.61
2018-11-13T04:05:51.699Z,84.12
2018-11-13T04:06:51.649Z,84.12
2018-11-13T04:07:51.637Z,83.81
2018-11-13T04:08:51.652Z,84.01
2018-11-13T04:09:51.668Z,84.01
2018-11-13T04:10:51.592Z,83.95
2018-11-13T04:11:51.613Z,83.95
2018-11-13T04:12:51.582Z,84.01
2018-11-13T04:13:51.589Z,84.01
2018-11-13T04:14:51.555Z,84.16
2018-11-13T04:15:51.581Z,84.33
2018-11-13T04:16:51.546Z,84.06
2018-11-13T04:17:51.524Z,84.77
2018-11-13T04:18:51.528Z,84.77
2018-11-13T04:19:51.549Z,85.49
2018-11-13T04:20:51.494Z,85.18
2018-11-13T04:21:51.497Z,85.38
2018-11-13T04:22:51.469Z,84.36
2018-11-13T04:23:51.447Z,84.57
2018-11-13T04:24:51.444Z,84.98
2018-11-13T04:25:51.477Z,84.57
2018-11-13T04:26:51.421Z,83.75
2018-11-13T04:27:51.468Z,84.77
2018-11-13T04:28:51.431Z,84.36
2018-11-13T04:29:51.381Z,84.06
2018-11-13T04:30:51.467Z,84.47
2018-11-13T04:31:51.388Z,84.77
2018-11-13T04:32:51.339Z,84.57
2018-11-13T04:33:51.397Z,84.98
2018-11-13T04:34:51.381Z,84.26
2018-11-13T04:35:51.341Z,84.06
2018-11-13T04:36:51.308Z,84.47
2018-11-13T04:37:51.299Z,83.95
2018-11-13T04:38:51.545Z,84.16
2018-11-13T04:39:51.268Z,84.06
2018-11-13T04:40:51.256Z,84.36
2018-11-13T04:41:51.287Z,83.44
2018-11-13T04:42:51.270Z,84.26
2018-11-13T04:43:51.268Z,84.26
2018-11-13T04:44:51.217Z,84.16
2018-11-13T04:45:51.473Z,84.16
2018-11-13T04:46:51.187Z,84.26
2018-11-13T04:47:51.170Z,83.75
2018-11-13T04:48:51.190Z,84.26
2018-11-13T04:49:51.193Z,83.95
2018-11-13T04:50:51.147Z,84.06
2018-11-13T04:51:51.198Z,83.95
2018-11-13T04:52:51.143Z,84.16
2018-11-13T04:53:51.106Z,84.47
2018-11-13T04:54:51.103Z,84.57
2018-11-13T04:55:51.146Z,84.98
2018-11-13T04:56:51.101Z,85.02
2018-11-13T04:57:51.075Z,84.36
2018-11-13T04:58:51.069Z,84.41
2018-11-13T04:59:51.044Z,84.41
2018-11-13T05:00:51.039Z,84.30
2018-11-13T05:01:51.058Z,84.16
2018-11-13T05:02:51.117Z,84.61
2018-11-13T05:03:50.993Z,83.75
2018-11-13T05:04:51.011Z,84.09
2018-11-13T05:05:51.023Z,84.00
2018-11-13T05:06:50.980Z,84.16
2018-11-13T05:07:50.954Z,84.09
2018-11-13T05:08:51.112Z,84.00
2018-11-13T05:09:50.939Z,83.95
2018-11-13T05:10:50.916Z,83.65
2018-11-13T05:11:50.955Z,83.85
2018-11-13T05:12:50.894Z,83.69
2018-11-13T05:13:50.923Z,83.44
2018-11-13T05:14:50.929Z,83.54
2018-11-13T05:15:50.857Z,83.85
2018-11-13T05:16:50.852Z,83.65
2018-11-13T05:17:50.842Z,83.65
2018-11-13T05:18:50.834Z,83.95
2018-11-13T05:19:50.825Z,83.54
2018-11-13T05:20:50.898Z,83.54
2018-11-13T05:21:50.797Z,84.06
2018-11-13T05:22:50.798Z,84.20
2018-11-13T05:23:50.819Z,84.77
2018-11-13T05:24:50.767Z,84.88
2018-11-13T05:25:50.753Z,84.36
2018-11-13T05:26:50.853Z,84.77
2018-11-13T05:27:50.738Z,85.08
2018-11-13T05:28:50.715Z,84.57
2018-11-13T05:29:50.745Z,84.57
2018-11-13T05:30:50.703Z,84.36
2018-11-13T05:31:50.713Z,84.88
2018-11-13T05:32:50.685Z,84.77
2018-11-13T05:33:50.667Z,84.36
2018-11-13T05:34:50.646Z,84.77
2018-11-13T05:35:50.704Z,84.47
2018-11-13T05:36:50.657Z,84.98
2018-11-13T05:37:50.650Z,84.47
2018-11-13T05:38:50.662Z,84.36
2018-11-13T05:39:50.596Z,85.28
2018-11-13T05:40:50.577Z,84.81
2018-11-13T05:41:50.648Z,85.38
2018-11-13T05:42:50.554Z,84.98
2018-11-13T05:43:50.580Z,85.53
2018-11-13T05:44:50.586Z,84.98
2018-11-13T05:45:50.536Z,85.18
2018-11-13T05:46:50.510Z,84.88
2018-11-13T05:47:50.549Z,85.18
2018-11-13T05:48:50.495Z,84.98
2018-11-13T05:49:50.477Z,84.98
2018-11-13T05:50:50.518Z,84.47
2018-11-13T05:51:50.471Z,84.16
2018-11-13T05:52:50.451Z,84.26
2018-11-13T05:53:50.452Z,84.16
2018-11-13T05:54:50.468Z,84.16
2018-11-13T05:55:50.415Z,83.75
2018-11-13T05:56:50.448Z,84.77
2018-11-13T05:57:50.397Z,84.67
2018-11-13T05:58:50.389Z,84.26
2018-11-13T05:59:50.415Z,83.95
2018-11-13T06:00:50.425Z,83.85
2018-11-13T06:01:50.350Z,83.24
2018-11-13T06:02:50.405Z,83.14
2018-11-13T06:03:50.336Z,82.83
2018-11-13T06:04:50.321Z,82.12
2018-11-13T06:05:50.320Z,82.08
2018-11-13T06:06:50.305Z,82.12
2018-11-13T06:07:50.275Z,82.28
2018-11-13T06:08:50.544Z,82.28
2018-11-13T06:09:50.266Z,81.26
2018-11-13T06:10:50.253Z,82.18
2018-11-13T06:11:50.272Z,82.28
2018-11-13T06:12:50.234Z,82.28
2018-11-13T06:13:50.265Z,82.39
2018-11-13T06:14:50.203Z,81.57
2018-11-13T06:15:50.197Z,81.57
2018-11-13T06:16:50.225Z,82.18
2018-11-13T06:17:50.203Z,81.67
2018-11-13T06:18:50.152Z,81.87
2018-11-13T06:19:50.153Z,81.67
2018-11-13T06:20:50.146Z,80.91
2018-11-13T06:21:50.137Z,80.61
2018-11-13T06:22:50.211Z,80.10
2018-11-13T06:23:50.110Z,79.80
2018-11-13T06:24:50.092Z,79.69
2018-11-13T06:25:50.076Z,79.59
2018-11-13T06:26:50.069Z,79.59
2018-11-13T06:27:50.106Z,78.88
2018-11-13T06:28:50.127Z,78.98
2018-11-13T06:29:50.064Z,78.84
2018-11-13T06:30:50.029Z,77.92
2018-11-13T06:31:50.018Z,77.96
2018-11-13T06:32:50.030Z,77.62
2018-11-13T06:33:49.993Z,77.21
2018-11-13T06:34:50.087Z,77.41
2018-11-13T06:35:49.978Z,76.70
2018-11-13T06:36:49.974Z,76.90
2018-11-13T06:37:50.039Z,76.09
2018-11-13T06:38:50.189Z,76.19
2018-11-13T06:39:49.947Z,76.39
2018-11-13T06:40:49.918Z,75.98
2018-11-13T06:41:49.926Z,76.39
2018-11-13T06:42:49.932Z,76.09
2018-11-13T06:43:49.875Z,76.29
2018-11-13T06:44:49.881Z,76.29
2018-11-13T06:45:49.851Z,76.09
2018-11-13T06:46:49.843Z,75.78
2018-11-13T06:47:49.907Z,75.98
2018-11-13T06:48:49.829Z,75.27
2018-11-13T06:49:49.874Z,75.03
2018-11-13T06:50:49.851Z,76.09
2018-11-13T06:51:49.785Z,75.54
2018-11-13T06:52:49.778Z,75.23
2018-11-13T06:53:49.764Z,75.27
2018-11-13T06:54:49.815Z,75.37
2018-11-13T06:55:49.781Z,75.16
2018-11-13T06:56:49.732Z,75.16
2018-11-13T06:57:49.726Z,74.96
2018-11-13T06:58:49.734Z,75.54
2018-11-13T06:59:49.693Z,75.23
2018-11-13T07:00:49.740Z,74.93
2018-11-13T07:01:49.687Z,75.44
2018-11-13T07:02:49.736Z,75.37
2018-11-13T07:03:49.655Z,75.88
2018-11-13T07:04:49.661Z,75.98
2018-11-13T07:05:49.643Z,75.16
2018-11-13T07:06:49.669Z,75.16
2018-11-13T07:07:49.688Z,75.57
2018-11-13T07:08:49.690Z,75.37
2018-11-13T07:09:49.595Z,76.29
2018-11-13T07:10:49.629Z,76.12
2018-11-13T07:11:49.562Z,76.39
2018-11-13T07:12:49.602Z,76.73
2018-11-13T07:13:49.542Z,76.12
2018-11-13T07:14:49.532Z,76.22
2018-11-13T07:15:49.516Z,76.73
2018-11-13T07:16:49.518Z,76.73
2018-11-13T07:17:49.508Z,76.53
2018-11-13T07:18:49.533Z,77.14
2018-11-13T07:19:49.487Z,76.73
2018-11-13T07:20:49.478Z,76.93
2018-11-13T07:21:49.471Z,76.97
2018-11-13T07:22:49.496Z,76.36
2018-11-13T07:23:49.486Z,76.56
2018-11-13T07:24:49.427Z,76.46
2018-11-13T07:25:49.419Z,76.67
2018-11-13T07:26:49.400Z,77.18
2018-11-13T07:27:49.558Z,76.77
2018-11-13T07:28:49.439Z,77.18
2018-11-13T07:29:49.367Z,76.97
2018-11-13T07:30:49.422Z,76.87
2018-11-13T07:31:50.047Z,77.79
2018-11-13T07:32:49.343Z,77.42
2018-11-13T07:33:49.324Z,77.42
2018-11-13T07:34:49.368Z,78.03
2018-11-13T07:35:49.299Z,77.42
2018-11-13T07:36:49.329Z,77.31
2018-11-13T07:37:50.046Z,76.90
2018-11-13T07:38:49.272Z,77.11
2018-11-13T07:39:49.274Z,77.52
2018-11-13T07:40:49.338Z,77.11
2018-11-13T07:41:49.296Z,77.42
2018-11-13T07:42:49.303Z,77.42
2018-11-13T07:43:49.220Z,77.31
2018-11-13T07:44:49.204Z,78.23
2018-11-13T07:45:49.229Z,77.76
2018-11-13T07:46:49.180Z,78.03
2018-11-13T07:47:49.407Z,77.35
2018-11-13T07:48:49.210Z,77.52
2018-11-13T07:49:49.144Z,77.72
2018-11-13T07:50:49.129Z,77.97
2018-11-13T07:51:49.112Z,77.56
2018-11-13T07:52:49.115Z,77.31
2018-11-13T07:53:49.133Z,77.11
2018-11-13T07:54:49.129Z,77.42
2018-11-13T07:55:49.065Z,77.31
2018-11-13T07:56:49.067Z,77.11
2018-11-13T07:57:49.052Z,76.70
2018-11-13T07:58:49.048Z,77.62
2018-11-13T07:59:49.023Z,77.01
2018-11-13T08:00:49.099Z,77.22
2018-11-13T08:01:49.006Z,76.81
2018-11-13T08:02:48.999Z,77.01
2018-11-13T08:03:49.121Z,76.36
2018-11-13T08:04:49.040Z,76.67
2018-11-13T08:05:48.961Z,76.77
2018-11-13T08:06:49.057Z,76.26
2018-11-13T08:07:48.948Z,75.95
2018-11-13T08:08:48.975Z,75.85
2018-11-13T08:09:48.930Z,76.02
2018-11-13T08:10:48.996Z,76.26
2018-11-13T08:11:48.902Z,75.41
2018-11-13T08:12:49.021Z,76.06
2018-11-13T08:13:48.909Z,75.95
2018-11-13T08:14:48.874Z,75.51
2018-11-13T08:15:48.910Z,75.71
2018-11-13T08:16:48.973Z,75.71
2018-11-13T08:17:48.892Z,75.41
2018-11-13T08:18:49.871Z,75.10
2018-11-13T08:19:48.824Z,75.00
2018-11-13T08:20:48.819Z,75.78
2018-11-13T08:21:48.786Z,75.07
2018-11-13T08:22:48.816Z,75.37
2018-11-13T08:23:48.764Z,74.96
2018-11-13T08:24:48.744Z,74.86
2018-11-13T08:25:49.085Z,75.07
2018-11-13T08:26:48.774Z,75.37
2018-11-13T08:27:48.754Z,74.25
2018-11-13T08:28:48.781Z,74.01
2018-11-13T08:29:48.697Z,74.83
2018-11-13T08:30:48.707Z,74.21
2018-11-13T08:31:48.668Z,73.60
2018-11-13T08:32:48.704Z,74.11
2018-11-13T08:33:48.654Z,74.01
2018-11-13T08:34:48.714Z,74.01
2018-11-13T08:35:48.640Z,73.57
2018-11-13T08:36:48.659Z,73.67
2018-11-13T08:37:48.604Z,73.60
2018-11-13T08:38:48.715Z,72.86
2018-11-13T08:39:48.695Z,73.06
2018-11-13T08:40:48.613Z,73.13
2018-11-13T08:41:48.552Z,72.11
2018-11-13T08:42:48.560Z,71.91
2018-11-13T08:43:48.613Z,72.08
2018-11-13T08:44:48.518Z,72.08
2018-11-13T08:45:48.558Z,71.67
2018-11-13T08:46:48.500Z,71.77
2018-11-13T08:47:48.490Z,71.43
2018-11-13T08:48:48.476Z,71.33
2018-11-13T08:49:48.466Z,70.68
2018-11-13T08:50:48.502Z,70.38
2018-11-13T08:51:48.488Z,69.87
2018-11-13T08:52:48.435Z,69.13
2018-11-13T08:53:48.424Z,68.85
2018-11-13T08:54:48.406Z,69.84
2018-11-13T08:55:48.397Z,69.23
2018-11-13T08:56:48.393Z,68.52
2018-11-13T08:57:48.517Z,68.21
2018-11-13T08:58:48.465Z,68.69
2018-11-13T08:59:48.350Z,68.72
2018-11-13T09:00:48.391Z,67.77
2018-11-13T09:01:48.341Z,68.21
2018-11-13T09:02:48.322Z,67.57
2018-11-13T09:03:48.322Z,66.69
2018-11-13T09:04:48.296Z,67.50
2018-11-13T09:05:48.335Z,67.71
2018-11-13T09:06:48.273Z,67.19
2018-11-13T09:07:48.302Z,67.57
2018-11-13T09:08:48.305Z,66.76
2018-11-13T09:09:48.239Z,66.86
2018-11-13T09:10:48.226Z,67.16
2018-11-13T09:11:48.292Z,66.96
2018-11-13T09:12:48.281Z,67.36
2018-11-13T09:13:48.205Z,67.47
2018-11-13T09:14:48.189Z,66.66
2018-11-13T09:15:48.167Z,67.80
2018-11-13T09:16:48.167Z,68.69
2018-11-13T09:17:48.236Z,68.69
2018-11-13T09:18:48.268Z,67.88
2018-11-13T09:19:48.185Z,67.54
2018-11-13T09:20:48.166Z,67.77
2018-11-13T09:21:48.130Z,66.86
2018-11-13T09:22:48.160Z,67.57
2018-11-13T09:23:48.216Z,67.36
2018-11-13T09:24:48.119Z,67.50
2018-11-13T09:25:48.072Z,67.40
2018-11-13T09:26:48.080Z,67.77
2018-11-13T09:27:48.054Z,68.62
2018-11-13T09:28:48.052Z,67.97
2018-11-13T09:29:48.109Z,67.97
2018-11-13T09:30:48.360Z,67.47
2018-11-13T09:31:48.050Z,67.67
2018-11-13T09:32:48.049Z,67.06
2018-11-13T09:33:47.971Z,65.23
2018-11-13T09:34:47.999Z,64.93
2018-11-13T09:35:47.954Z,66.05
2018-11-13T09:36:47.936Z,64.93
2018-11-13T09:37:47.936Z,64.93
2018-11-13T09:38:48.157Z,64.93
2018-11-13T09:39:47.963Z,65.44
2018-11-13T09:40:47.891Z,64.49
2018-11-13T09:41:47.886Z,63.00
2018-11-13T09:42:47.959Z,62.90
2018-11-13T09:43:47.903Z,62.70
2018-11-13T09:44:47.907Z,62.72
2018-11-13T09:45:48.541Z,62.72
2018-11-13T09:46:47.819Z,64.15
2018-11-13T09:47:48.024Z,63.13
2018-11-13T09:48:47.812Z,63.64
2018-11-13T09:49:47.787Z,64.55
2018-11-13T09:50:47.805Z,63.64
2018-11-13T09:51:47.836Z,64.99
2018-11-13T09:52:47.819Z,64.76
2018-11-13T09:53:47.856Z,63.43
2018-11-13T09:54:47.740Z,63.64
2018-11-13T09:55:47.751Z,63.43
2018-11-13T09:56:47.709Z,63.33
2018-11-13T09:57:47.749Z,62.62
2018-11-13T09:58:47.761Z,63.10
2018-11-13T09:59:47.688Z,63.71
2018-11-13T10:00:47.875Z,63.71
2018-11-13T10:01:48.308Z,63.30
2018-11-13T10:02:48.301Z,62.90
2018-11-13T10:03:48.333Z,63.28
2018-11-13T10:04:48.144Z,62.90
2018-11-13T10:05:47.667Z,62.97
2018-11-13T10:06:47.694Z,62.36
2018-11-13T10:07:47.603Z,62.26
2018-11-13T10:08:47.738Z,62.05
2018-11-13T10:09:47.614Z,62.36
2018-11-13T10:10:47.609Z,62.94
2018-11-13T10:11:47.588Z,62.23
2018-11-13T10:12:47.535Z,61.93
2018-11-13T10:13:47.636Z,61.29
2018-11-13T10:14:47.523Z,60.68
2018-11-13T10:15:47.495Z,61.08
2018-11-13T10:16:47.526Z,60.30
2018-11-13T10:17:47.617Z,60.50
2018-11-13T10:18:47.469Z,59.89
2018-11-13T10:19:47.453Z,60.63
2018-11-13T10:20:47.448Z,62.16
2018-11-13T10:21:47.451Z,62.26
2018-11-13T10:22:47.462Z,61.41
2018-11-13T10:23:47.448Z,61.24
2018-11-13T10:24:47.410Z,60.74
2018-11-13T10:25:47.428Z,61.55
2018-11-13T10:26:47.420Z,61.11
2018-11-13T10:27:47.401Z,62.46
2018-11-13T10:28:47.411Z,61.01
2018-11-13T10:29:47.404Z,61.85
2018-11-13T10:30:47.352Z,62.02
2018-11-13T10:31:47.319Z,60.50
2018-11-13T10:32:47.395Z,60.50
2018-11-13T10:33:47.325Z,61.01
2018-11-13T10:34:47.287Z,60.30
2018-11-13T10:35:47.312Z,60.91
2018-11-13T10:36:47.313Z,59.72
2018-11-13T10:37:47.302Z,60.50
2018-11-13T10:38:47.446Z,61.11
2018-11-13T10:39:47.294Z,60.60
2018-11-13T10:40:47.497Z,60.10
2018-11-13T10:41:47.209Z,59.48
2018-11-13T10:42:47.256Z,59.59
2018-11-13T10:43:47.183Z,60.60
2018-11-13T10:44:47.187Z,59.05
2018-11-13T10:45:47.171Z,59.97
2018-11-13T10:46:47.151Z,60.14
2018-11-13T10:47:47.140Z,58.59
2018-11-13T10:48:47.172Z,58.29
2018-11-13T10:49:47.131Z,58.56
2018-11-13T10:50:47.137Z,59.17
2018-11-13T10:51:47.095Z,57.98
2018-11-13T10:52:47.125Z,57.88
2018-11-13T10:53:47.077Z,57.78
2018-11-13T10:54:47.059Z,57.68
2018-11-13T10:55:47.099Z,58.49
2018-11-13T10:56:47.045Z,58.90
2018-11-13T10:57:47.098Z,58.18
2018-11-13T10:58:47.025Z,57.28
2018-11-13T10:59:47.006Z,57.78
2018-11-13T11:00:46.994Z,57.37
2018-11-13T11:01:46.983Z,57.17
2018-11-13T11:02:47.045Z,57.28
2018-11-13T11:03:47.022Z,56.99
2018-11-13T11:04:46.956Z,57.58
2018-11-13T11:05:46.951Z,57.91
2018-11-13T11:06:46.978Z,57.91
2018-11-13T11:07:46.925Z,57.50
2018-11-13T11:08:47.187Z,57.10
2018-11-13T11:09:46.888Z,57.60
2018-11-13T11:10:46.899Z,57.30
2018-11-13T11:11:46.888Z,57.07
2018-11-13T11:12:47.002Z,57.28
2018-11-13T11:13:46.945Z,57.68
2018-11-13T11:14:46.845Z,57.35
2018-11-13T11:15:46.846Z,55.93
2018-11-13T11:16:46.871Z,55.73
2018-11-13T11:17:46.845Z,55.52
2018-11-13T11:18:46.843Z,56.03
2018-11-13T11:19:46.803Z,55.43
2018-11-13T11:20:46.831Z,56.13
2018-11-13T11:21:46.768Z,55.70
2018-11-13T11:22:46.837Z,54.82
2018-11-13T11:23:46.903Z,55.93
2018-11-13T11:24:46.743Z,54.21
2018-11-13T11:25:46.716Z,54.74
2018-11-13T11:26:46.731Z,54.41
2018-11-13T11:27:46.711Z,55.02
2018-11-13T11:28:46.740Z,54.51
2018-11-13T11:29:46.689Z,54.24
2018-11-13T11:30:46.740Z,54.86
2018-11-13T11:31:46.669Z,54.77
2018-11-13T11:32:46.695Z,54.26
2018-11-13T11:33:46.629Z,54.90
2018-11-13T11:34:46.628Z,54.69
2018-11-13T11:35:46.642Z,54.69
2018-11-13T11:36:46.631Z,54.49
2018-11-13T11:37:46.588Z,56.21
2018-11-13T11:38:46.896Z,55.91
2018-11-13T11:39:46.576Z,54.18
2018-11-13T11:40:46.556Z,54.39
2018-11-13T11:41:46.547Z,54.51
2018-11-13T11:42:46.560Z,56.21
2018-11-13T11:43:46.521Z,55.10
2018-11-13T11:44:46.633Z,54.90
2018-11-13T11:45:46.498Z,53.98
2018-11-13T11:46:46.490Z,54.82
2018-11-13T11:47:46.478Z,54.18
2018-11-13T11:48:46.487Z,54.18
2018-11-13T11:49:46.463Z,54.39
2018-11-13T11:50:46.480Z,53.98
2018-11-13T11:51:46.430Z,54.59
2018-11-13T11:52:46.419Z,53.58
2018-11-13T11:53:46.436Z,53.98
2018-11-13T11:54:46.444Z,54.39
2018-11-13T11:55:46.386Z,54.18
2018-11-13T11:56:46.414Z,54.79
2018-11-13T11:57:46.360Z,54.66
2018-11-13T11:58:46.375Z,54.26
2018-11-13T11:59:46.392Z,54.36
2018-11-13T12:00:46.515Z,53.93
2018-11-13T12:01:46.328Z,52.51
2018-11-13T12:02:46.309Z,53.14
2018-11-13T12:03:46.346Z,53.34
2018-11-13T12:04:46.316Z,51.65
2018-11-13T12:05:46.290Z,52.33
2018-11-13T12:06:46.294Z,52.25
2018-11-13T12:07:46.269Z,51.75
2018-11-13T12:08:46.326Z,52.66
2018-11-13T12:09:46.276Z,51.82
2018-11-13T12:10:46.215Z,51.72
2018-11-13T12:11:46.214Z,52.03
2018-11-13T12:12:46.199Z,51.72
2018-11-13T12:13:46.200Z,51.52
2018-11-13T12:14:46.218Z,50.91
2018-11-13T12:15:46.161Z,50.71
2018-11-13T12:16:46.155Z,50.91
2018-11-13T12:17:46.143Z,50.60
2018-11-13T12:18:46.183Z,50.40
2018-11-13T12:19:46.317Z,51.21
2018-11-13T12:20:46.166Z,50.40
2018-11-13T12:21:46.093Z,51.12
2018-11-13T12:22:46.108Z,51.21
2018-11-13T12:23:46.078Z,50.38
2018-11-13T12:24:46.075Z,50.91
2018-11-13T12:25:46.101Z,51.65
2018-11-13T12:26:46.144Z,51.85
2018-11-13T12:27:46.043Z,51.75
2018-11-13T12:28:46.020Z,51.75
2018-11-13T12:29:46.007Z,52.15
2018-11-13T12:30:45.999Z,51.85
2018-11-13T12:31:45.988Z,52.36
2018-11-13T12:32:46.017Z,52.46
2018-11-13T12:33:45.977Z,52.56
2018-11-13T12:34:46.067Z,52.36
2018-11-13T12:35:45.953Z,52.86
2018-11-13T12:36:45.981Z,52.03
2018-11-13T12:37:45.924Z,51.62
2018-11-13T12:38:46.199Z,51.90
2018-11-13T12:39:45.916Z,51.80
2018-11-13T12:40:46.029Z,51.21
2018-11-13T12:41:45.878Z,51.21
2018-11-13T12:42:46.516Z,51.82
2018-11-13T12:43:45.855Z,51.62
2018-11-13T12:44:45.845Z,52.56
2018-11-13T12:45:45.901Z,52.73
2018-11-13T12:46:45.824Z,52.66
2018-11-13T12:47:45.848Z,52.71
2018-11-13T12:48:45.833Z,51.70
2018-11-13T12:49:45.835Z,52.20
2018-11-13T12:50:45.789Z,52.51
2018-11-13T12:51:45.798Z,52.51
2018-11-13T12:52:45.761Z,52.20